Time;durP1;ratioP1;P1;durP2;ratioP2;P2;SDS_P1;SDS_P2;PMS_P1;PMS_P2;Temp;Humidity;BMP_temperature;BMP_pressure;BME280_temperature;BME280_humidity;BME280_pressure;Samples;Min_cycle;Max_cycle;Signal;HPM_P1;HPM_P2
2022/03/28 00:00:25;;;;;;;40.25;19.63;;;;;;;7.29;80.00;98417.03;4892061;29;20039;-86
2022/03/28 00:02:51;;;;;;;43.72;21.70;;;;;;;7.55;79.06;98432.94;4891244;29;20056;-86
2022/03/28 00:05:17;;;;;;;40.20;17.83;;;;;;;7.20;79.24;98409.38;4891017;29;21585;-85
2022/03/28 00:07:43;;;;;;;35.67;16.20;;;;;;;7.26;79.95;98446.41;4905119;29;20040;-86
2022/03/28 00:10:10;;;;;;;35.95;17.25;;;;;;;7.31;79.72;98425.81;4890571;29;20032;-86
2022/03/28 00:12:38;;;;;;;38.45;18.65;;;;;;;7.26;80.10;98428.63;4891344;29;20068;-86
2022/03/28 00:15:05;;;;;;;41.05;17.73;;;;;;;7.00;81.05;98432.19;4891123;29;20063;-86
2022/03/28 00:17:32;;;;;;;41.45;17.67;;;;;;;7.15;81.33;98446.75;4904717;29;20028;-86
2022/03/28 00:19:59;;;;;;;41.00;19.40;;;;;;;6.95;82.33;98436.78;4911631;29;20023;-86
2022/03/28 00:22:25;;;;;;;38.25;18.00;;;;;;;6.97;83.11;98437.63;4908583;29;20032;-86
2022/03/28 00:24:50;;;;;;;43.28;21.15;;;;;;;7.01;82.75;98443.72;4903323;29;20031;-86
2022/03/28 00:27:17;;;;;;;41.90;20.58;;;;;;;6.85;83.27;98448.66;4887697;29;20035;-86
2022/03/28 00:29:44;;;;;;;42.80;21.30;;;;;;;6.87;83.67;98441.50;4895698;29;20031;-86
2022/03/28 00:32:10;;;;;;;41.30;20.75;;;;;;;6.71;83.54;98437.59;4906174;29;20035;-86
2022/03/28 00:34:36;;;;;;;43.80;20.52;;;;;;;6.66;84.52;98436.88;4893714;29;20024;-86
2022/03/28 00:37:02;;;;;;;45.85;20.55;;;;;;;6.57;84.40;98429.19;4912982;29;20051;-85
2022/03/28 00:39:27;;;;;;;38.10;18.75;;;;;;;6.52;84.97;98429.31;4901539;29;20578;-86
2022/03/28 00:41:53;;;;;;;42.33;18.33;;;;;;;6.44;85.93;98446.44;4886929;29;20067;-85
2022/03/28 00:44:19;;;;;;;35.33;17.42;;;;;;;6.34;85.79;98429.03;4903000;29;20028;-86
2022/03/28 00:46:45;;;;;;;43.95;18.77;;;;;;;6.28;86.63;98435.41;4902148;29;20503;-86
2022/03/28 00:49:11;;;;;;;37.75;16.92;;;;;;;6.17;87.19;98431.34;4913760;29;20024;-86
2022/03/28 00:51:38;;;;;;;29.60;15.27;;;;;;;6.19;86.95;98437.47;4923789;29;20128;-86
2022/03/28 00:54:04;;;;;;;26.95;13.02;;;;;;;6.08;85.84;98421.00;4905920;29;20070;-86
2022/03/28 00:56:30;;;;;;;23.90;12.90;;;;;;;6.00;86.27;98431.84;4921452;29;20024;-86
2022/03/28 00:58:58;;;;;;;28.17;13.02;;;;;;;5.81;87.56;98426.19;4905935;29;20030;-86
2022/03/28 01:01:24;;;;;;;26.90;13.85;;;;;;;5.91;88.54;98426.81;4906061;29;20055;-86
2022/03/28 01:03:49;;;;;;;42.17;15.68;;;;;;;5.80;89.03;98415.59;4911058;29;20035;-86
2022/03/28 01:06:16;;;;;;;30.77;13.00;;;;;;;5.71;89.31;98430.03;4906071;29;20039;-86
2022/03/28 01:08:41;;;;;;;27.60;12.75;;;;;;;5.66;89.50;98423.09;4890415;29;20042;-86
2022/03/28 01:11:11;;;;;;;23.90;11.95;;;;;;;5.97;88.49;98418.66;4928697;29;20055;-86
2022/03/28 01:13:39;;;;;;;24.65;12.32;;;;;;;5.82;88.20;98409.31;4927990;29;20027;-86
2022/03/28 01:16:05;;;;;;;31.38;14.68;;;;;;;5.80;89.19;98410.28;4911860;29;20051;-87
2022/03/28 01:18:31;;;;;;;34.03;16.95;;;;;;;5.91;89.76;98430.31;4928557;29;20035;-86
2022/03/28 01:21:01;;;;;;;31.85;15.90;;;;;;;5.92;89.45;98436.50;4912225;29;20043;-86
2022/03/28 01:23:27;;;;;;;34.28;16.00;;;;;;;5.80;89.03;98427.09;4913863;29;20048;-86
2022/03/28 01:25:54;;;;;;;35.00;16.10;;;;;;;5.63;90.66;98421.38;4902892;29;20501;-86
2022/03/28 01:28:21;;;;;;;31.77;15.02;;;;;;;5.70;90.40;98435.34;4902694;29;20064;-86
2022/03/28 01:30:47;;;;;;;31.73;16.15;;;;;;;5.65;91.78;98432.84;4907077;29;20030;-86
2022/03/28 01:33:13;;;;;;;28.75;14.32;;;;;;;5.60;91.31;98429.44;4907654;29;20107;-85
2022/03/28 01:35:40;;;;;;;32.63;14.23;;;;;;;5.33;91.98;98411.63;4906290;29;20036;-85
2022/03/28 01:38:08;;;;;;;30.58;14.98;;;;;;;5.54;91.05;98429.59;4921345;29;20035;-85
2022/03/28 01:40:37;;;;;;;40.63;15.70;;;;;;;5.54;90.84;98419.00;4906752;29;20071;-86
2022/03/28 01:43:03;;;;;;;45.47;17.67;;;;;;;5.63;91.08;98432.00;4921402;29;20028;-85
2022/03/28 01:45:28;;;;;;;52.55;22.00;;;;;;;5.46;90.86;98415.69;4905858;29;20027;-85
2022/03/28 01:47:54;;;;;;;44.80;19.10;;;;;;;5.33;91.83;98419.59;4898051;29;20032;-85
2022/03/28 01:50:20;;;;;;;49.75;19.42;;;;;;;5.42;92.07;98429.94;4925382;29;20020;-86
2022/03/28 01:52:46;;;;;;;48.95;19.52;;;;;;;5.38;92.33;98436.25;4901855;29;20562;-86
2022/03/28 01:55:12;;;;;;;33.50;15.90;;;;;;;5.35;92.46;98429.22;4888338;29;20060;-86
2022/03/28 01:57:39;;;;;;;41.60;16.10;;;;;;;5.49;91.48;98428.88;4906254;29;20059;-85
2022/03/28 02:00:10;;;;;;;37.40;17.35;;;;;;;5.51;90.88;98427.03;4934925;29;20031;-86
2022/03/28 02:02:36;;;;;;;31.55;14.60;;;;;;;5.41;91.24;98430.88;4907399;29;20127;-86
2022/03/28 02:05:03;;;;;;;39.63;14.23;;;;;;;5.42;91.75;98428.16;4888674;29;20052;-85
2022/03/28 02:07:29;;;;;;;28.67;14.68;;;;;;;5.41;91.88;98423.75;4888676;29;20035;-85
2022/03/28 02:09:55;;;;;;;43.45;17.83;;;;;;;5.39;92.32;98425.59;4903910;29;20571;-85
2022/03/28 02:12:21;;;;;;;41.40;17.83;;;;;;;5.37;92.08;98427.44;4905840;29;20420;-85
2022/03/28 02:14:46;;;;;;;48.67;18.92;;;;;;;5.29;92.10;98424.09;4904603;29;20052;-85
2022/03/28 02:17:12;;;;;;;44.35;19.80;;;;;;;5.20;92.54;98423.50;4903680;29;20133;-85
2022/03/28 02:19:38;;;;;;;36.80;17.10;;;;;;;5.19;93.46;98429.69;4903392;29;20035;-85
2022/03/28 02:22:04;;;;;;;35.92;16.08;;;;;;;5.11;94.14;98421.94;4921727;29;20028;-86
2022/03/28 02:24:30;;;;;;;36.67;16.85;;;;;;;5.13;93.54;98427.22;4905894;29;20020;-86
2022/03/28 02:26:56;;;;;;;37.42;16.15;;;;;;;5.06;93.83;98423.84;4886362;29;20123;-85
2022/03/28 02:29:21;;;;;;;49.20;19.00;;;;;;;5.17;94.18;98439.50;4900985;29;20025;-85
2022/03/28 02:31:47;;;;;;;44.22;20.67;;;;;;;5.25;95.30;98448.09;4903419;29;20111;-84
2022/03/28 02:34:13;;;;;;;50.00;20.58;;;;;;;5.14;95.74;98442.19;4907269;29;20024;-85
2022/03/28 02:36:39;;;;;;;47.45;21.17;;;;;;;5.08;96.65;98440.56;4922271;29;20020;-84
2022/03/28 02:39:05;;;;;;;47.60;21.42;;;;;;;4.85;96.00;98443.81;4906528;29;20111;-86
2022/03/28 02:41:31;;;;;;;44.08;19.23;;;;;;;4.89;95.88;98445.47;4921378;29;20514;-85
2022/03/28 02:43:56;;;;;;;44.97;18.10;;;;;;;5.26;95.56;98432.13;4925386;29;20137;-85
2022/03/28 02:46:23;;;;;;;48.88;21.80;;;;;;;5.15;95.43;98430.69;4924887;29;20432;-85
2022/03/28 02:48:49;;;;;;;41.72;20.27;;;;;;;4.90;96.66;98457.81;4928505;29;20038;-87
2022/03/28 02:51:14;;;;;;;38.00;18.60;;;;;;;4.61;95.43;98457.69;4912535;29;20091;-86
2022/03/28 02:53:40;;;;;;;41.72;18.10;;;;;;;4.59;96.27;98438.28;4912164;29;20035;-85
2022/03/28 02:56:06;;;;;;;40.17;20.17;;;;;;;4.47;96.71;98445.63;4927598;29;20028;-85
2022/03/28 02:58:32;;;;;;;54.30;21.25;;;;;;;4.40;98.11;98447.56;4927979;29;20023;-85
2022/03/28 03:00:57;;;;;;;46.45;20.50;;;;;;;4.56;98.46;98435.69;4909771;29;20097;-86
2022/03/28 03:03:23;;;;;;;47.78;23.20;;;;;;;4.56;97.10;98446.28;4926444;29;20103;-85
2022/03/28 03:05:52;;;;;;;59.97;24.85;;;;;;;4.43;96.75;98447.47;4922864;29;20043;-85
2022/03/28 03:08:23;;;;;;;62.70;22.98;;;;;;;4.32;96.95;98433.63;4915307;29;20028;-85
2022/03/28 03:10:49;;;;;;;45.90;22.40;;;;;;;4.30;96.82;98431.03;4888568;29;20036;-84
2022/03/28 03:13:14;;;;;;;56.03;23.95;;;;;;;4.23;98.36;98425.91;4901853;29;20408;-85
2022/03/28 03:15:40;;;;;;;56.55;23.13;;;;;;;4.15;98.03;98422.56;4902258;29;20055;-86
2022/03/28 03:18:06;;;;;;;42.42;19.17;;;;;;;4.35;98.57;98462.69;4902725;29;20064;-85
2022/03/28 03:20:32;;;;;;;44.00;19.23;;;;;;;4.23;100.00;98441.78;4903093;29;20039;-85
2022/03/28 03:22:59;;;;;;;36.63;16.42;;;;;;;4.31;100.00;98447.75;4906635;29;20036;-85
2022/03/28 03:25:25;;;;;;;35.65;15.18;;;;;;;4.21;100.00;98411.84;4914571;29;20036;-85
2022/03/28 03:27:51;;;;;;;32.60;16.55;;;;;;;4.09;100.00;98412.13;4913457;29;20076;-85
2022/03/28 03:30:18;;;;;;;39.63;17.52;;;;;;;4.26;100.00;98423.19;4914426;29;20017;-86
2022/03/28 03:32:44;;;;;;;46.40;18.80;;;;;;;4.22;100.00;98422.38;4908720;29;20036;-85
2022/03/28 03:35:11;;;;;;;42.47;18.27;;;;;;;4.26;100.00;98436.41;4919500;29;20032;-84
2022/03/28 03:37:37;;;;;;;39.05;16.50;;;;;;;4.23;100.00;98439.13;4912887;29;20046;-85
2022/03/28 03:40:04;;;;;;;30.75;14.88;;;;;;;4.27;100.00;98439.03;4905055;29;20115;-80
2022/03/28 03:42:31;;;;;;;31.33;13.40;;;;;;;4.20;100.00;98432.13;4910847;29;20037;-86
2022/03/28 03:44:58;;;;;;;31.83;14.68;;;;;;;4.21;100.00;98433.00;4907519;29;20120;-87
2022/03/28 03:47:24;;;;;;;36.05;16.95;;;;;;;4.21;100.00;98446.25;4893333;29;20024;-87
2022/03/28 03:49:49;;;;;;;33.50;15.60;;;;;;;4.09;100.00;98434.13;4910553;29;20038;-86
2022/03/28 03:52:15;;;;;;;26.73;13.90;;;;;;;4.05;100.00;98429.84;4895881;29;20039;-84
2022/03/28 03:54:41;;;;;;;33.00;15.13;;;;;;;4.29;100.00;98434.56;4918195;29;20036;-84
2022/03/28 03:57:07;;;;;;;33.13;15.88;;;;;;;4.21;100.00;98444.47;4905967;29;20467;-84
2022/03/28 03:59:33;;;;;;;32.55;15.60;;;;;;;4.22;100.00;98434.72;4905365;29;20144;-84
2022/03/28 04:01:59;;;;;;;36.63;15.82;;;;;;;4.30;100.00;98446.03;4902837;29;20042;-84
2022/03/28 04:04:25;;;;;;;42.92;15.88;;;;;;;4.24;100.00;98455.00;4923666;29;20517;-85
2022/03/28 04:06:50;;;;;;;38.03;17.60;;;;;;;4.16;100.00;98446.34;4918910;29;20068;-84
2022/03/28 04:09:16;;;;;;;119.15;43.17;;;;;;;4.21;100.00;98443.59;4908721;29;20043;-85
2022/03/28 04:11:42;;;;;;;142.07;48.70;;;;;;;4.10;100.00;98456.19;4901166;29;20326;-84
2022/03/28 04:14:07;;;;;;;119.53;45.78;;;;;;;4.05;100.00;98466.00;4922954;29;20435;-86
2022/03/28 04:16:34;;;;;;;103.85;38.75;;;;;;;3.77;100.00;98432.19;4900008;29;20048;-84
2022/03/28 04:18:59;;;;;;;80.13;32.60;;;;;;;4.22;100.00;98466.50;4904704;29;20031;-79
2022/03/28 04:21:25;;;;;;;79.68;32.67;;;;;;;4.23;100.00;98458.56;4907269;29;20476;-86
2022/03/28 04:23:51;;;;;;;99.13;35.42;;;;;;;4.14;100.00;98460.53;4904188;29;20082;-84
2022/03/28 04:26:16;;;;;;;104.78;39.60;;;;;;;4.21;100.00;98473.59;4919757;29;20034;-84
2022/03/28 04:28:42;;;;;;;121.50;42.80;;;;;;;4.09;100.00;98455.31;4902168;29;20067;-84
2022/03/28 04:31:08;;;;;;;108.88;42.00;;;;;;;4.17;100.00;98473.69;4902188;29;20073;-85
2022/03/28 04:33:34;;;;;;;109.22;42.47;;;;;;;4.10;100.00;98464.13;4914536;29;20043;-85
2022/03/28 04:36:29;;;;;;;97.25;40.45;;;;;;;4.11;100.00;98476.47;4921177;29;20059;-85
2022/03/28 04:38:55;;;;;;;71.00;30.65;;;;;;;3.92;100.00;98453.94;4920516;29;20071;-85
2022/03/28 04:41:20;;;;;;;82.85;30.48;;;;;;;3.93;100.00;98458.34;4904985;29;20031;-86
2022/03/28 04:43:46;;;;;;;65.32;27.17;;;;;;;3.82;98.99;98442.66;4921026;29;20032;-84
2022/03/28 04:46:11;;;;;;;81.93;29.08;;;;;;;4.09;98.94;98465.91;4905001;29;20523;-85
2022/03/28 04:48:37;;;;;;;65.95;26.60;;;;;;;4.03;98.38;98436.91;4920593;29;20470;-86
2022/03/28 04:51:03;;;;;;;64.88;25.02;;;;;;;4.10;98.47;98462.34;4917222;29;20051;-84
2022/03/28 04:53:28;;;;;;;67.00;30.08;;;;;;;4.24;98.77;98476.19;4901243;29;20036;-85
2022/03/28 04:55:54;;;;;;;82.90;30.60;;;;;;;4.18;98.88;98465.69;4909449;29;20527;-85
2022/03/28 04:58:19;;;;;;;79.07;29.00;;;;;;;4.49;97.48;98471.19;4885934;29;20028;-85
2022/03/28 05:00:45;;;;;;;61.03;27.75;;;;;;;5.14;94.55;98476.66;4909584;29;20050;-85
2022/03/28 05:03:10;;;;;;;68.13;28.02;;;;;;;5.73;90.61;98464.47;4904484;29;20030;-84
2022/03/28 05:05:36;;;;;;;70.30;30.50;;;;;;;6.13;84.89;98472.19;4905268;29;20028;-83
2022/03/28 05:08:01;;;;;;;88.57;33.30;;;;;;;6.14;84.05;98479.25;4903874;29;20032;-83
2022/03/28 05:10:27;;;;;;;79.78;33.35;;;;;;;6.36;82.70;98480.34;4904445;29;20027;-84
2022/03/28 05:12:53;;;;;;;72.70;31.80;;;;;;;7.01;79.74;98481.78;4920495;29;20028;-84
2022/03/28 05:15:19;;;;;;;102.03;36.33;;;;;;;7.40;76.30;98479.59;4912589;29;20044;-85
2022/03/28 05:17:47;;;;;;;182.38;59.42;;;;;;;7.43;74.75;98494.59;4904109;29;20027;-83
2022/03/28 05:20:29;;;;;;;213.95;77.70;;;;;;;7.54;72.57;98481.75;4904107;29;20038;-83
2022/03/28 05:22:54;;;;;;;262.00;95.13;;;;;;;7.44;72.02;98437.78;4903790;29;20472;-82
2022/03/28 05:25:23;;;;;;;224.68;81.35;;;;;;;8.48;69.41;98481.88;4891545;29;20123;-83
2022/03/28 05:27:48;;;;;;;168.95;64.07;;;;;;;9.55;64.11;98463.19;4900544;29;20032;-83
2022/03/28 05:30:14;;;;;;;146.95;62.42;;;;;;;10.14;61.43;98459.72;4900160;29;20567;-84
2022/03/28 05:32:42;;;;;;;138.50;59.55;;;;;;;11.18;57.11;98472.53;4885402;29;20036;-84
2022/03/28 05:35:09;;;;;;;125.88;56.85;;;;;;;12.32;52.81;98465.66;4900744;29;20028;-83
2022/03/28 05:37:35;;;;;;;161.73;63.78;;;;;;;13.36;50.70;98450.81;4900482;29;20087;-84
2022/03/28 05:40:01;;;;;;;149.05;62.33;;;;;;;13.77;48.60;98456.44;4884827;29;20122;-85
2022/03/28 05:42:27;;;;;;;141.95;56.28;;;;;;;13.91;47.97;98431.38;4921201;29;20031;-85
2022/03/28 05:44:53;;;;;;;125.13;58.33;;;;;;;14.52;46.79;98417.66;4919888;29;20042;-84
2022/03/28 05:47:19;;;;;;;122.68;61.33;;;;;;;15.27;45.07;98441.44;4935751;29;20035;-84
2022/03/28 05:49:44;;;;;;;116.22;53.95;;;;;;;15.76;43.33;98408.47;4900385;29;20032;-83
2022/03/28 05:52:10;;;;;;;101.28;50.17;;;;;;;15.66;43.25;98419.03;4900907;29;20028;-85
2022/03/28 05:54:35;;;;;;;100.63;46.15;;;;;;;16.25;42.65;98415.75;4900891;29;20099;-83
2022/03/28 05:57:01;;;;;;;90.57;40.03;;;;;;;17.88;39.58;98410.75;4900453;29;20511;-84
2022/03/28 06:00:00;;;;;;;84.63;41.60;;;;;;;18.73;38.33;98416.69;4900432;29;20064;-84
2022/03/28 06:02:26;;;;;;;84.45;36.95;;;;;;;18.50;38.41;98412.22;4900012;29;20141;-85
2022/03/28 06:04:52;;;;;;;66.80;29.67;;;;;;;18.77;38.04;98404.56;4900064;29;20036;-84
2022/03/28 06:07:17;;;;;;;53.15;23.58;;;;;;;19.02;37.54;98398.00;4900307;29;20032;-85
2022/03/28 06:09:43;;;;;;;65.95;29.33;;;;;;;19.61;36.74;98391.19;4899872;29;20028;-84
2022/03/28 06:12:10;;;;;;;88.32;31.10;;;;;;;19.98;35.88;98405.19;4931076;29;20571;-84
2022/03/28 06:14:35;;;;;;;90.38;29.80;;;;;;;19.67;36.13;98416.94;4899985;29;20032;-85
2022/03/28 06:17:02;;;;;;;81.15;32.17;;;;;;;19.66;36.38;98398.91;4884212;29;20122;-84
2022/03/28 06:19:27;;;;;;;85.28;33.63;;;;;;;19.98;35.71;98378.88;4903989;29;20030;-85
2022/03/28 06:21:53;;;;;;;60.08;25.98;;;;;;;20.64;34.80;98376.66;4903092;29;20035;-84
2022/03/28 06:24:18;;;;;;;44.42;21.98;;;;;;;21.39;34.24;98385.19;4886618;29;20036;-85
2022/03/28 06:26:44;;;;;;;51.85;24.33;;;;;;;22.26;32.82;98391.50;4901553;29;20035;-85
2022/03/28 06:29:10;;;;;;;40.00;20.73;;;;;;;22.38;32.54;98378.53;4899456;29;20035;-83
2022/03/28 06:31:36;;;;;;;37.35;20.02;;;;;;;22.99;31.62;98384.31;4903215;29;20031;-83
2022/03/28 06:34:02;;;;;;;30.70;16.25;;;;;;;22.91;31.08;98370.59;4901508;29;20142;-84
2022/03/28 06:36:29;;;;;;;40.15;17.58;;;;;;;22.87;31.75;98371.91;4918959;29;20083;-85
2022/03/28 06:38:55;;;;;;;31.42;17.67;;;;;;;22.99;31.08;98370.69;4934827;29;20436;-84
2022/03/28 06:41:21;;;;;;;38.10;16.52;;;;;;;23.10;31.15;98379.50;4901881;29;20032;-85
2022/03/28 06:43:47;;;;;;;33.65;16.10;;;;;;;23.23;31.05;98379.16;4912556;29;20472;-85
2022/03/28 06:46:13;;;;;;;35.88;15.65;;;;;;;22.26;31.80;98377.84;4899103;29;20035;-84
2022/03/28 06:48:39;;;;;;;30.88;14.82;;;;;;;22.09;32.40;98373.16;4892464;29;20156;-84
2022/03/28 06:51:06;;;;;;;32.22;14.73;;;;;;;21.49;33.12;98386.06;4906971;29;20035;-83
2022/03/28 06:53:32;;;;;;;37.58;16.63;;;;;;;22.40;32.02;98371.91;4887425;29;20411;-84
2022/03/28 06:55:58;;;;;;;29.00;15.85;;;;;;;23.30;30.45;98368.47;4909892;29;20482;-85
2022/03/28 06:58:24;;;;;;;36.42;16.67;;;;;;;24.70;29.15;98372.91;4917362;29;20055;-85
2022/03/28 07:00:50;;;;;;;33.67;14.75;;;;;;;24.33;29.34;98371.50;4906389;29;20035;-85
2022/03/28 07:03:16;;;;;;;30.15;14.20;;;;;;;24.02;29.75;98366.47;4899808;29;20035;-87
2022/03/28 07:05:42;;;;;;;26.02;13.63;;;;;;;22.47;31.32;98355.81;4907632;29;20028;-85
2022/03/28 07:08:08;;;;;;;46.33;15.20;;;;;;;22.33;32.11;98379.00;4913571;29;20063;-84
2022/03/28 07:10:34;;;;;;;41.63;18.00;;;;;;;22.60;32.22;98372.72;4891991;29;20059;-85
2022/03/28 07:12:59;;;;;;;44.17;17.95;;;;;;;23.19;32.50;98378.59;4898609;29;20377;-85
2022/03/28 07:15:27;;;;;;;38.33;15.65;;;;;;;23.58;30.36;98359.25;4913736;29;20055;-82
2022/03/28 07:18:02;;;;;;;29.20;13.98;;;;;;;23.97;29.08;98368.81;4917324;29;20575;-84
2022/03/28 07:20:29;;;;;;;34.97;17.50;;;;;;;24.76;29.05;98365.94;4898786;29;20064;-85
2022/03/28 07:22:56;;;;;;;35.65;15.40;;;;;;;24.77;28.76;98373.09;4900145;29;20456;-84
2022/03/28 07:25:22;;;;;;;56.35;17.45;;;;;;;24.07;29.50;98364.09;4890794;29;20107;-84
2022/03/28 07:27:49;;;;;;;28.85;15.57;;;;;;;23.45;30.37;98378.75;4899965;29;20032;-84
2022/03/28 07:30:15;;;;;;;33.88;14.48;;;;;;;22.78;31.11;98376.41;4883932;29;20107;-84
2022/03/28 07:32:41;;;;;;;34.75;19.88;;;;;;;21.10;33.78;98395.19;4899736;29;20098;-84
2022/03/28 07:35:08;;;;;;;31.52;17.52;;;;;;;22.20;32.64;98383.91;4904425;29;20446;-83
2022/03/28 07:37:34;;;;;;;28.63;14.90;;;;;;;22.28;32.12;98384.00;4899972;29;20496;-85
2022/03/28 07:40:05;;;;;;;43.67;17.73;;;;;;;23.19;31.40;98378.59;4898462;29;20412;-84
2022/03/28 07:42:32;;;;;;;31.83;16.67;;;;;;;23.08;31.06;98383.41;4891294;29;20503;-85
2022/03/28 07:44:58;;;;;;;36.30;16.55;;;;;;;23.77;30.33;98372.75;4916626;29;20106;-83
2022/03/28 07:47:25;;;;;;;38.17;16.90;;;;;;;25.33;28.51;98365.16;4893234;29;20559;-83
2022/03/28 07:49:52;;;;;;;27.45;15.85;;;;;;;26.34;26.78;98369.38;4921519;29;20032;-83
2022/03/28 07:52:18;;;;;;;33.75;17.50;;;;;;;26.76;26.16;98357.25;4912762;29;20039;-76
2022/03/28 07:54:44;;;;;;;30.90;17.30;;;;;;;27.09;25.88;98353.38;4914251;29;20040;-79
2022/03/28 07:57:11;;;;;;;36.85;16.60;;;;;;;27.55;25.89;98358.97;4921159;29;20385;-74
2022/03/28 07:59:38;;;;;;;28.10;12.90;;;;;;;27.10;25.88;98335.84;4897318;29;20115;-75
2022/03/28 08:02:04;;;;;;;25.15;13.57;;;;;;;25.90;26.85;98348.81;4922919;29;20601;-73
2022/03/28 08:04:31;;;;;;;30.83;13.90;;;;;;;26.97;25.84;98342.97;4897797;29;20032;-75
2022/03/28 08:06:57;;;;;;;23.55;12.52;;;;;;;27.17;25.41;98342.34;4900524;29;20066;-73
2022/03/28 08:09:22;;;;;;;23.08;13.30;;;;;;;27.74;25.20;98342.00;4905503;29;20059;-74
2022/03/28 08:11:48;;;;;;;28.52;9.70;;;;;;;28.49;23.51;98340.13;4901162;29;20028;-75
2022/03/28 08:14:13;;;;;;;19.20;8.63;;;;;;;27.84;24.72;98337.13;4918186;29;20031;-74
2022/03/28 08:16:39;;;;;;;15.00;9.02;;;;;;;27.13;25.52;98332.75;4887286;29;20044;-73
2022/03/28 08:19:04;;;;;;;20.38;8.98;;;;;;;27.14;25.14;98326.22;4888936;29;20104;-74
2022/03/28 08:21:31;;;;;;;27.33;13.23;;;;;;;25.78;26.35;98323.59;4903616;29;20031;-73
2022/03/28 08:23:57;;;;;;;18.50;11.50;;;;;;;24.79;27.62;98335.50;4919059;29;20110;-75
2022/03/28 08:26:22;;;;;;;17.73;10.40;;;;;;;26.03;26.65;98327.19;4919538;29;20559;-75
2022/03/28 08:28:48;;;;;;;21.63;10.07;;;;;;;25.68;26.52;98316.59;4909435;29;20452;-74
2022/03/28 08:31:13;;;;;;;16.70;10.05;;;;;;;23.68;29.11;98324.50;4925627;29;20079;-76
2022/03/28 08:33:39;;;;;;;22.67;11.05;;;;;;;25.28;27.95;98326.44;4923273;29;20024;-74
2022/03/28 08:36:05;;;;;;;14.93;9.20;;;;;;;26.53;26.30;98312.38;4909553;29;20032;-75
2022/03/28 08:38:34;;;;;;;17.50;9.48;;;;;;;26.67;26.40;98315.22;4900196;29;20048;-75
2022/03/28 08:41:00;;;;;;;16.80;9.02;;;;;;;27.05;25.87;98305.31;4894870;29;20111;-74
2022/03/28 08:43:25;;;;;;;13.52;8.35;;;;;;;26.90;25.17;98293.38;4902888;29;20409;-74
2022/03/28 08:45:52;;;;;;;14.00;7.97;;;;;;;26.42;25.92;98299.03;4912498;29;20054;-74
2022/03/28 08:48:17;;;;;;;19.00;8.18;;;;;;;27.68;24.41;98294.09;4918966;29;20031;-74
2022/03/28 08:50:49;;;;;;;23.30;8.35;;;;;;;27.75;24.42;98280.44;4902916;29;20404;-74
2022/03/28 08:53:16;;;;;;;15.63;8.60;;;;;;;28.00;23.98;98266.28;4919171;29;20024;-74
2022/03/28 08:55:43;;;;;;;18.30;7.85;;;;;;;27.53;24.81;98284.09;4912161;29;20028;-74
2022/03/28 08:58:09;;;;;;;11.98;7.78;;;;;;;28.16;23.97;98275.44;4917701;29;20063;-74
2022/03/28 09:00:38;;;;;;;15.38;8.43;;;;;;;28.35;23.76;98275.78;4902672;29;20045;-75
2022/03/28 09:03:04;;;;;;;13.63;7.97;;;;;;;28.25;23.61;98266.91;4918287;29;20039;-75
2022/03/28 09:05:38;;;;;;;11.65;7.30;;;;;;;29.49;22.87;98259.47;4914102;29;20086;-76
2022/03/28 09:08:05;;;;;;;10.93;6.95;;;;;;;29.21;22.78;98254.88;4900599;29;20058;-76
2022/03/28 09:10:34;;;;;;;12.60;7.25;;;;;;;28.48;23.48;98253.09;4897961;29;20035;-76
2022/03/28 09:13:07;;;;;;;11.05;7.75;;;;;;;28.82;23.40;98241.50;4900169;29;20532;-76
2022/03/28 09:15:46;;;;;;;11.45;7.65;;;;;;;29.46;22.59;98236.94;4918232;29;20040;-75
2022/03/28 09:18:24;;;;;;;13.48;8.10;;;;;;;29.51;22.95;98223.38;4917914;29;20034;-75
2022/03/28 09:20:56;;;;;;;15.18;7.85;;;;;;;29.46;22.59;98225.91;4917990;29;20091;-74
2022/03/28 09:23:45;;;;;;;19.73;8.40;;;;;;;29.49;22.48;98223.59;4917852;29;20474;-74
2022/03/28 09:26:20;;;;;;;20.40;7.13;;;;;;;29.67;22.50;98211.22;4892314;29;20098;-74
2022/03/28 09:28:58;;;;;;;15.80;8.20;;;;;;;30.57;21.78;98204.69;4911885;29;20412;-75
2022/03/28 09:31:36;;;;;;;14.02;7.15;;;;;;;30.73;21.57;98211.78;4884847;29;20028;-74
2022/03/28 09:34:06;;;;;;;14.05;7.90;;;;;;;30.67;21.78;98211.75;4898826;29;20031;-75
2022/03/28 09:36:34;;;;;;;15.20;7.65;;;;;;;31.40;21.00;98194.34;4906684;29;20039;-74
2022/03/28 09:39:00;;;;;;;13.98;8.02;;;;;;;31.82;20.31;98188.41;4914333;29;20039;-74
2022/03/28 09:41:28;;;;;;;11.75;6.40;;;;;;;30.49;21.15;98181.91;4898780;29;20511;-74
2022/03/28 09:43:55;;;;;;;9.63;6.00;;;;;;;30.23;21.05;98173.47;4913620;29;20036;-74
2022/03/28 09:46:28;;;;;;;33.70;7.15;;;;;;;30.09;22.07;98172.50;4884003;29;20361;-74
2022/03/28 09:48:54;;;;;;;11.85;7.38;;;;;;;29.20;22.68;98176.81;4913347;29;20039;-75
2022/03/28 09:51:23;;;;;;;12.30;6.85;;;;;;;29.04;22.62;98171.56;4901038;29;20064;-75
2022/03/28 09:53:49;;;;;;;20.33;7.03;;;;;;;29.43;21.99;98155.47;4883716;29;20035;-74
2022/03/28 09:56:15;;;;;;;12.68;6.15;;;;;;;29.43;22.44;98165.63;4897080;29;20183;-75
2022/03/28 09:58:56;;;;;;;10.43;5.97;;;;;;;29.11;22.29;98155.97;4910079;29;20110;-75
2022/03/28 10:01:25;;;;;;;14.10;5.70;;;;;;;30.46;21.07;98147.25;4908273;29;20047;-75
2022/03/28 10:03:53;;;;;;;16.65;6.05;;;;;;;31.43;20.13;98146.88;4882777;29;20091;-74
2022/03/28 10:06:20;;;;;;;14.25;6.70;;;;;;;31.62;20.36;98138.59;4898420;29;20042;-75
2022/03/28 10:08:46;;;;;;;20.48;6.47;;;;;;;31.17;20.25;98112.63;4911235;29;20114;-75
2022/03/28 10:11:14;;;;;;;30.73;6.13;;;;;;;30.43;20.69;98120.06;4917169;29;20035;-75
2022/03/28 10:13:40;;;;;;;12.63;5.00;;;;;;;31.76;19.55;98110.91;4917314;29;20039;-76
2022/03/28 10:16:06;;;;;;;14.07;6.05;;;;;;;31.46;19.96;98105.81;4886354;29;20086;-75
2022/03/28 10:18:40;;;;;;;17.08;6.25;;;;;;;32.76;19.37;98096.56;4908743;29;20032;-75
2022/03/28 10:21:09;;;;;;;10.23;5.55;;;;;;;31.52;19.67;98102.25;4901297;29;20118;-75
2022/03/28 10:23:41;;;;;;;9.32;5.50;;;;;;;31.16;19.57;98099.03;4904523;29;20032;-77
2022/03/28 10:26:08;;;;;;;16.17;5.60;;;;;;;29.16;21.08;98092.00;4889238;29;20441;-76
2022/03/28 10:28:34;;;;;;;6.93;4.82;;;;;;;30.68;19.96;98078.06;4896529;29;20036;-77
2022/03/28 10:31:14;;;;;;;7.75;4.72;;;;;;;30.82;19.74;98086.19;4881329;29;20443;-76
2022/03/28 10:33:51;;;;;;;7.70;5.13;;;;;;;29.90;20.14;98074.75;4915793;29;20069;-76
2022/03/28 10:36:30;;;;;;;10.43;4.53;;;;;;;30.61;19.62;98078.88;4916677;29;20031;-76
2022/03/28 10:39:34;;;;;;;8.20;4.70;;;;;;;31.08;19.33;98068.78;4888235;29;20472;-76
2022/03/28 10:42:13;;;;;;;5.38;3.97;;;;;;;32.46;18.40;98058.31;4903641;29;20047;-74
2022/03/28 10:44:47;;;;;;;11.90;5.22;;;;;;;32.73;17.97;98057.13;4916669;29;20032;-76
2022/03/28 10:47:14;;;;;;;11.70;4.63;;;;;;;32.03;18.69;98058.06;4916949;29;20551;-75
2022/03/28 10:49:43;;;;;;;20.67;4.97;;;;;;;31.52;19.26;98054.34;4916358;29;20036;-75
2022/03/28 10:52:12;;;;;;;9.20;5.22;;;;;;;30.90;19.27;98038.13;4916855;29;20483;-74
2022/03/28 10:54:38;;;;;;;14.15;4.80;;;;;;;30.81;19.71;98040.25;4899821;29;20118;-76
2022/03/28 10:57:04;;;;;;;10.10;5.15;;;;;;;31.14;19.47;98038.38;4932739;29;20496;-73
2022/03/28 10:59:31;;;;;;;10.40;4.72;;;;;;;31.07;19.43;98031.19;4883584;29;20036;-74
2022/03/28 11:01:58;;;;;;;10.80;5.47;;;;;;;30.53;19.77;98032.13;4897850;29;20063;-73
2022/03/28 11:04:24;;;;;;;9.65;5.00;;;;;;;30.94;19.56;98031.13;4897441;29;20039;-76
2022/03/28 11:07:04;;;;;;;11.48;5.45;;;;;;;31.12;19.58;98035.00;4915609;29;20071;-75
2022/03/28 11:09:47;;;;;;;12.73;6.03;;;;;;;29.53;20.06;98012.53;4932210;29;20118;-75
2022/03/28 11:12:21;;;;;;;12.75;5.10;;;;;;;27.86;21.75;98018.72;4888788;29;20052;-74
2022/03/28 11:14:50;;;;;;;16.30;5.65;;;;;;;25.82;23.46;98017.91;4933181;29;20047;-75
2022/03/28 11:17:32;;;;;;;14.20;6.25;;;;;;;25.74;23.62;98015.22;4909493;29;20052;-75
2022/03/28 11:19:58;;;;;;;12.10;5.65;;;;;;;25.00;24.54;98025.69;4897396;29;20024;-74
2022/03/28 11:22:57;;;;;;;13.13;5.78;;;;;;;24.46;25.22;98014.38;4897706;29;20024;-74